createdAt,value
2018-10-03T00:02:13.726Z,100926.41
2018-10-03T00:04:43.050Z,100937.91
2018-10-03T00:07:12.400Z,100940.63
2018-10-03T00:09:41.727Z,100953.84
2018-10-03T00:12:11.474Z,100945.73
2018-10-03T00:14:40.806Z,100947.44
2018-10-03T00:17:10.133Z,100943.91
2018-10-03T00:19:39.510Z,100952.37
2018-10-03T00:22:08.811Z,100945.77
2018-10-03T00:24:40.448Z,100939.02
2018-10-03T00:27:09.774Z,100940.23
2018-10-03T00:29:39.182Z,100935.95
2018-10-03T00:32:09.164Z,100948.91
2018-10-03T00:34:38.530Z,100965.84
2018-10-03T00:37:07.847Z,100967.38
2018-10-03T00:39:37.169Z,100954.52
2018-10-03T00:42:07.419Z,100964.86
2018-10-03T00:44:36.760Z,100962.83
2018-10-03T00:47:06.233Z,100980.17
2018-10-03T00:49:35.631Z,100984.59
2018-10-03T00:52:04.991Z,100977.11
2018-10-03T00:54:34.920Z,100980.18
2018-10-03T00:57:04.263Z,100965.92
2018-10-03T00:59:33.603Z,100986.61
2018-10-03T01:02:02.907Z,100970.14
2018-10-03T01:04:35.488Z,100973.88
2018-10-03T01:07:05.311Z,100969.45
2018-10-03T01:09:34.684Z,100978.39
2018-10-03T01:12:05.342Z,100969.58
2018-10-03T01:14:35.739Z,100970.46
2018-10-03T01:17:05.884Z,100974.98
2018-10-03T01:19:35.288Z,100969.74
2018-10-03T01:22:04.657Z,100977.50
2018-10-03T01:24:34.127Z,100971.40
2018-10-03T01:27:03.518Z,100970.00
2018-10-03T01:29:34.480Z,100972.87
2018-10-03T01:32:03.878Z,100969.70
2018-10-03T01:34:33.213Z,100969.15
2018-10-03T01:37:02.764Z,100978.77
2018-10-03T01:39:32.076Z,100969.13
2018-10-03T01:42:02.415Z,100978.72
2018-10-03T01:44:31.872Z,100960.98
2018-10-03T01:47:01.271Z,100967.75
2018-10-03T01:49:31.501Z,100976.97
2018-10-03T01:52:00.816Z,100982.02
2018-10-03T01:54:30.149Z,100977.29
2018-10-03T01:56:59.730Z,100979.99
2018-10-03T01:59:29.395Z,100997.58
2018-10-03T02:01:58.758Z,101000.42
2018-10-03T02:04:28.080Z,100989.48
2018-10-03T02:06:57.406Z,101000.05
2018-10-03T02:09:26.730Z,100991.95
2018-10-03T02:11:56.033Z,100989.80
2018-10-03T02:14:25.351Z,100995.30
2018-10-03T02:16:54.617Z,100996.86
2018-10-03T02:19:24.060Z,100995.95
2018-10-03T02:21:53.449Z,100995.13
2018-10-03T02:24:22.843Z,101006.69
2018-10-03T02:26:52.186Z,101000.36
2018-10-03T02:29:21.573Z,101007.61
2018-10-03T02:31:50.896Z,101007.14
2018-10-03T02:34:20.269Z,101003.61
2018-10-03T02:36:49.678Z,101009.00
2018-10-03T02:39:19.010Z,101016.73
2018-10-03T02:41:48.448Z,101011.78
2018-10-03T02:44:18.100Z,101017.71
2018-10-03T02:46:47.503Z,101025.52
2018-10-03T02:49:16.866Z,101007.91
2018-10-03T02:51:46.574Z,101029.19
2018-10-03T02:54:15.906Z,101029.34
2018-10-03T02:56:45.348Z,101023.14
2018-10-03T02:59:14.897Z,101036.55
2018-10-03T03:01:44.453Z,101037.08
2018-10-03T03:04:13.857Z,101033.80
2018-10-03T03:06:43.397Z,101033.70
2018-10-03T03:09:14.076Z,101042.92
2018-10-03T03:11:43.564Z,101035.16
2018-10-03T03:14:12.974Z,101046.25
2018-10-03T03:16:42.379Z,101054.55
2018-10-03T03:19:11.760Z,101049.31
2018-10-03T03:21:41.092Z,101054.84
2018-10-03T03:24:10.396Z,101065.05
2018-10-03T03:26:39.739Z,101072.82
2018-10-03T03:29:09.386Z,101084.90
2018-10-03T03:31:38.760Z,101081.84
2018-10-03T03:34:08.068Z,101085.28
2018-10-03T03:36:37.372Z,101097.69
2018-10-03T03:39:07.983Z,101085.32
2018-10-03T03:41:37.377Z,101082.03
2018-10-03T03:44:06.746Z,101083.64
2018-10-03T03:46:36.692Z,101081.17
2018-10-03T03:49:06.141Z,101085.30
2018-10-03T03:51:35.577Z,101089.98
2018-10-03T03:54:04.924Z,101094.77
2018-10-03T03:56:34.314Z,101101.35
2018-10-03T03:59:03.707Z,101120.65
2018-10-03T04:01:33.600Z,101123.81
2018-10-03T04:04:02.967Z,101104.72
2018-10-03T04:06:32.355Z,101109.27
2018-10-03T04:09:01.653Z,101095.30
2018-10-03T04:11:31.106Z,101103.43
2018-10-03T04:14:00.571Z,101114.97
2018-10-03T04:16:30.083Z,101117.09
2018-10-03T04:18:59.446Z,101107.23
2018-10-03T04:21:32.266Z,101119.20
2018-10-03T04:24:01.599Z,101109.55
2018-10-03T04:26:30.986Z,101105.90
2018-10-03T04:29:00.382Z,101109.56
2018-10-03T04:31:29.834Z,101121.36
2018-10-03T04:33:59.191Z,101111.59
2018-10-03T04:36:28.686Z,101115.12
2018-10-03T04:38:57.966Z,101115.91
2018-10-03T04:41:27.350Z,101122.64
2018-10-03T04:43:56.719Z,101128.77
2018-10-03T04:46:26.109Z,101123.34
2018-10-03T04:48:55.561Z,101127.68
2018-10-03T04:51:24.939Z,101130.94
2018-10-03T04:53:54.238Z,101140.46
2018-10-03T04:56:23.510Z,101145.43
2018-10-03T04:58:53.090Z,101141.19
2018-10-03T05:01:22.363Z,101147.42
2018-10-03T05:03:51.678Z,101160.34
2018-10-03T05:06:20.991Z,101151.58
2018-10-03T05:08:50.293Z,101149.56
2018-10-03T05:11:19.613Z,101161.52
2018-10-03T05:13:48.928Z,101151.96
2018-10-03T05:16:18.275Z,101164.57
2018-10-03T05:18:48.483Z,101166.26
2018-10-03T05:21:17.867Z,101165.84
2018-10-03T05:23:47.167Z,101169.00
2018-10-03T05:26:16.425Z,101182.22
2018-10-03T05:28:45.764Z,101172.56
2018-10-03T05:31:15.065Z,101172.56
2018-10-03T05:33:44.371Z,101175.97
2018-10-03T05:36:13.684Z,101186.25
2018-10-03T05:38:42.958Z,101195.56
2018-10-03T05:41:13.396Z,101208.45
2018-10-03T05:43:43.223Z,101207.63
2018-10-03T05:46:12.609Z,101210.88
2018-10-03T05:48:41.935Z,101206.81
2018-10-03T05:51:11.284Z,101206.93
2018-10-03T05:53:40.682Z,101201.86
2018-10-03T05:56:10.007Z,101218.12
2018-10-03T05:58:39.385Z,101222.26
2018-10-03T06:01:08.751Z,101210.30
2018-10-03T06:03:38.110Z,101229.20
2018-10-03T06:06:08.149Z,101228.12
2018-10-03T06:08:37.531Z,101230.86
2018-10-03T06:11:06.964Z,101247.47
2018-10-03T06:13:36.342Z,101260.56
2018-10-03T06:16:05.890Z,101275.34
2018-10-03T06:18:35.322Z,101283.07
2018-10-03T06:21:04.683Z,101290.42
2018-10-03T06:23:34.050Z,101282.88
2018-10-03T06:26:03.384Z,101296.32
2018-10-03T06:28:33.170Z,101310.61
2018-10-03T06:31:02.881Z,101311.19
2018-10-03T06:33:32.243Z,101305.31
2018-10-03T06:36:01.747Z,101300.64
2018-10-03T06:38:31.220Z,101319.73
2018-10-03T06:41:00.660Z,101319.86
2018-10-03T06:43:30.060Z,101325.54
2018-10-03T06:45:59.400Z,101332.36
2018-10-03T06:48:28.759Z,101338.33
2018-10-03T06:50:58.295Z,101340.80
2018-10-03T06:53:27.660Z,101346.18
2018-10-03T06:55:56.961Z,101349.91
2018-10-03T06:58:26.339Z,101348.38
2018-10-03T07:00:55.754Z,101360.64
2018-10-03T07:03:25.147Z,101367.59
2018-10-03T07:05:54.560Z,101381.31
2018-10-03T07:08:23.908Z,101384.70
2018-10-03T07:10:53.279Z,101386.45
2018-10-03T07:13:22.726Z,101393.56
2018-10-03T07:15:52.061Z,101392.03
2018-10-03T07:18:21.428Z,101395.98
2018-10-03T07:20:50.836Z,101403.83
2018-10-03T07:23:20.152Z,101409.28
2018-10-03T07:25:49.489Z,101411.38
2018-10-03T07:28:18.909Z,101402.98
2018-10-03T07:30:48.249Z,101403.05
2018-10-03T07:33:17.656Z,101404.14
2018-10-03T07:35:47.265Z,101403.88
2018-10-03T07:38:16.578Z,101413.45
2018-10-03T07:40:45.933Z,101415.77
2018-10-03T07:43:15.343Z,101421.63
2018-10-03T07:45:44.759Z,101429.04
2018-10-03T07:48:14.079Z,101439.23
2018-10-03T07:50:43.508Z,101439.79
2018-10-03T07:53:12.883Z,101442.02
2018-10-03T07:55:42.228Z,101442.05
2018-10-03T07:58:11.688Z,101447.53
2018-10-03T08:00:41.035Z,101455.98
2018-10-03T08:03:12.910Z,101456.16
2018-10-03T08:05:42.174Z,101460.91
2018-10-03T08:08:11.533Z,101474.57
2018-10-03T08:10:41.622Z,101471.59
2018-10-03T08:13:11.191Z,101475.83
2018-10-03T08:15:40.883Z,101488.31
2018-10-03T08:18:10.500Z,101489.39
2018-10-03T08:20:39.914Z,101498.92
2018-10-03T08:23:09.419Z,101499.53
2018-10-03T08:25:38.994Z,101515.09
2018-10-03T08:28:08.399Z,101510.94
2018-10-03T08:30:38.041Z,101514.52
2018-10-03T08:33:07.782Z,101512.00
2018-10-03T08:35:37.173Z,101516.03
2018-10-03T08:38:06.581Z,101525.03
2018-10-03T08:40:36.324Z,101533.67
2018-10-03T08:43:05.760Z,101526.91
2018-10-03T08:45:35.352Z,101531.76
2018-10-03T08:48:04.841Z,101531.70
2018-10-03T08:50:34.246Z,101543.72
2018-10-03T08:53:04.127Z,101536.59
2018-10-03T08:55:33.740Z,101547.84
2018-10-03T08:58:03.153Z,101558.06
2018-10-03T09:00:32.698Z,101556.94
2018-10-03T09:03:02.408Z,101559.60
2018-10-03T09:05:32.284Z,101564.12
2018-10-03T09:08:15.726Z,101572.02
2018-10-03T09:10:48.884Z,101585.05
2018-10-03T09:13:18.488Z,101584.84
2018-10-03T09:15:48.090Z,101591.31
2018-10-03T09:18:18.771Z,101595.83
2018-10-03T09:20:48.547Z,101596.42
2018-10-03T09:23:20.104Z,101601.02
2018-10-03T09:25:49.916Z,101594.68
2018-10-03T09:28:19.393Z,101603.27
2018-10-03T09:30:49.945Z,101605.33
2018-10-03T09:33:19.804Z,101614.52
2018-10-03T09:35:49.223Z,101621.60
2018-10-03T09:38:19.728Z,101613.77
2018-10-03T09:40:49.386Z,101621.89
2018-10-03T09:43:18.846Z,101625.38
2018-10-03T09:45:49.515Z,101640.80
2018-10-03T09:48:19.096Z,101639.80
2018-10-03T09:50:48.552Z,101630.94
2018-10-03T09:53:18.038Z,101637.98
2018-10-03T09:55:48.043Z,101637.48
2018-10-03T09:58:17.463Z,101646.75
2018-10-03T10:00:52.235Z,101647.45
2018-10-03T10:03:21.716Z,101654.45
2018-10-03T10:05:51.087Z,101649.42
2018-10-03T10:08:20.476Z,101657.13
2018-10-03T10:10:49.863Z,101654.16
2018-10-03T10:13:19.315Z,101667.75
2018-10-03T10:15:48.717Z,101672.33
2018-10-03T10:18:18.064Z,101673.36
2018-10-03T10:20:47.621Z,101682.83
2018-10-03T10:23:17.104Z,101701.83
2018-10-03T10:25:46.447Z,101695.12
2018-10-03T10:28:16.058Z,101704.56
2018-10-03T10:30:46.645Z,101696.67
2018-10-03T10:33:16.556Z,101694.03
2018-10-03T10:35:46.085Z,101693.99
2018-10-03T10:38:15.598Z,101696.66
2018-10-03T10:40:45.539Z,101693.92
2018-10-03T10:43:16.041Z,101694.16
2018-10-03T10:45:45.803Z,101717.00
2018-10-03T10:48:16.586Z,101718.83
2018-10-03T10:50:46.466Z,101719.10
2018-10-03T10:53:16.609Z,101715.73
2018-10-03T10:55:47.222Z,101727.52
2018-10-03T10:58:16.689Z,101707.56
2018-10-03T11:00:46.123Z,101712.41
2018-10-03T11:03:15.771Z,101712.73
2018-10-03T11:05:45.628Z,101727.04
2018-10-03T11:08:15.196Z,101729.36
2018-10-03T11:10:44.552Z,101726.58
2018-10-03T11:13:14.090Z,101741.06
2018-10-03T11:15:43.618Z,101733.70
2018-10-03T11:18:13.024Z,101751.15
2018-10-03T11:20:42.468Z,101760.66
2018-10-03T11:23:11.845Z,101749.58
2018-10-03T11:25:41.232Z,101753.39
2018-10-03T11:28:10.760Z,101757.45
2018-10-03T11:30:40.304Z,101748.86
2018-10-03T11:33:09.714Z,101748.34
2018-10-03T11:35:41.851Z,101743.53
2018-10-03T11:38:11.248Z,101748.30
2018-10-03T11:40:40.688Z,101761.47
2018-10-03T11:43:10.068Z,101776.18
2018-10-03T11:45:39.781Z,101794.25
2018-10-03T11:48:10.237Z,101797.08
2018-10-03T11:50:40.372Z,101802.74
2018-10-03T11:53:09.859Z,101810.05
2018-10-03T11:55:40.898Z,101800.01
2018-10-03T11:58:10.669Z,101788.97
2018-10-03T12:00:40.115Z,101791.66
2018-10-03T12:03:09.594Z,101784.83
2018-10-03T12:05:40.929Z,101796.14
2018-10-03T12:08:10.313Z,101796.77
2018-10-03T12:10:40.418Z,101805.56
2018-10-03T12:13:09.983Z,101816.92
2018-10-03T12:15:41.412Z,101839.87
2018-10-03T12:18:11.833Z,101860.11
2018-10-03T12:20:41.405Z,101850.20
2018-10-03T12:23:10.847Z,101841.51
2018-10-03T12:25:45.573Z,101827.83
2018-10-03T12:28:15.455Z,101828.02
2018-10-03T12:30:44.906Z,101829.65
2018-10-03T12:33:14.399Z,101825.95
2018-10-03T12:35:45.609Z,101824.52
2018-10-03T12:38:15.251Z,101818.59
2018-10-03T12:40:45.470Z,101823.52
2018-10-03T12:43:15.813Z,101819.34
2018-10-03T12:45:47.543Z,101826.94
2018-10-03T12:48:18.193Z,101826.47
2018-10-03T12:50:47.912Z,101829.61
2018-10-03T12:53:17.480Z,101831.61
2018-10-03T12:55:47.131Z,101834.47
2018-10-03T12:58:17.673Z,101838.84
2018-10-03T13:00:47.672Z,101845.58
2018-10-03T13:03:17.490Z,101846.48
2018-10-03T13:05:47.095Z,101845.61
2018-10-03T13:08:16.873Z,101858.61
2018-10-03T13:10:47.420Z,101860.02
2018-10-03T13:13:21.177Z,101858.47
2018-10-03T13:15:50.566Z,101863.59
2018-10-03T13:18:22.636Z,101879.27
2018-10-03T13:20:52.097Z,101889.45
2018-10-03T13:23:21.547Z,101897.41
2018-10-03T13:25:51.027Z,101887.33
2018-10-03T13:28:21.431Z,101888.16
2018-10-03T13:30:50.819Z,101882.39
2018-10-03T13:33:20.123Z,101893.38
2018-10-03T13:35:49.620Z,101900.94
2018-10-03T13:38:19.047Z,101903.55
2018-10-03T13:40:48.936Z,101905.53
2018-10-03T13:43:18.889Z,101915.42
2018-10-03T13:45:48.381Z,101908.05
2018-10-03T13:48:17.783Z,101915.28
2018-10-03T13:50:47.452Z,101911.39
2018-10-03T13:53:16.881Z,101909.70
2018-10-03T13:55:47.409Z,101919.06
2018-10-03T13:58:22.718Z,101915.24
2018-10-03T14:00:52.371Z,101926.39
2018-10-03T14:03:21.807Z,101966.56
2018-10-03T14:05:51.584Z,101940.47
2018-10-03T14:08:20.989Z,101948.00
2018-10-03T14:10:50.466Z,101938.20
2018-10-03T14:13:19.971Z,101931.06
2018-10-03T14:15:49.269Z,101933.40
2018-10-03T14:18:20.514Z,101926.53
2018-10-03T14:20:50.605Z,101923.69
2018-10-03T14:23:20.038Z,101924.20
2018-10-03T14:25:49.441Z,101934.16
2018-10-03T14:28:18.975Z,101935.30
2018-10-03T14:30:49.935Z,101946.53
2018-10-03T14:33:19.414Z,101937.20
2018-10-03T14:35:48.830Z,101939.70
2018-10-03T14:38:19.084Z,101937.06
2018-10-03T14:40:48.556Z,101940.36
2018-10-03T14:43:18.036Z,101940.55
2018-10-03T14:45:47.400Z,101935.70
2018-10-03T14:48:18.672Z,101936.11
2018-10-03T14:50:48.259Z,101943.53
2018-10-03T14:53:17.581Z,101945.36
2018-10-03T14:55:47.380Z,101950.37
2018-10-03T14:58:16.804Z,101957.86
2018-10-03T15:00:47.362Z,101954.42
2018-10-03T15:03:16.738Z,101955.70
2018-10-03T15:05:46.228Z,101955.84
2018-10-03T15:08:15.732Z,101956.39
2018-10-03T15:10:45.379Z,101960.90
2018-10-03T15:13:16.187Z,101954.91
2018-10-03T15:15:45.609Z,101956.13
2018-10-03T15:18:15.082Z,101967.17
2018-10-03T15:20:44.675Z,101972.30
2018-10-03T15:23:14.077Z,101971.92
2018-10-03T15:25:43.437Z,101978.70
2018-10-03T15:28:12.821Z,101967.14
2018-10-03T15:30:42.148Z,101974.38
2018-10-03T15:33:11.576Z,101982.31
2018-10-03T15:35:41.299Z,101981.65
2018-10-03T15:38:10.622Z,101983.05
2018-10-03T15:40:40.148Z,101994.86
2018-10-03T15:43:09.702Z,101999.16
2018-10-03T15:45:39.103Z,102000.53
2018-10-03T15:48:08.698Z,101998.48
2018-10-03T15:50:38.730Z,102007.73
2018-10-03T15:53:08.776Z,102011.66
2018-10-03T15:55:39.129Z,102013.20
2018-10-03T15:58:08.531Z,102009.09
2018-10-03T16:00:37.917Z,102001.23
2018-10-03T16:03:09.156Z,102009.44
2018-10-03T16:05:38.491Z,102020.89
2018-10-03T16:08:08.895Z,102012.34
2018-10-03T16:10:38.359Z,102017.25
2018-10-03T16:13:08.309Z,102022.72
2018-10-03T16:15:37.643Z,102025.08
2018-10-03T16:18:07.473Z,102029.68
2018-10-03T16:20:37.156Z,102026.08
2018-10-03T16:23:06.666Z,102029.31
2018-10-03T16:25:36.057Z,102026.04
2018-10-03T16:28:05.538Z,102028.13
2018-10-03T16:30:34.894Z,102037.83
2018-10-03T16:33:04.245Z,102039.27
2018-10-03T16:35:33.593Z,102047.14
2018-10-03T16:38:02.932Z,102044.94
2018-10-03T16:40:32.450Z,102046.73
2018-10-03T16:43:01.920Z,102056.72
2018-10-03T16:45:31.407Z,102049.58
2018-10-03T16:48:00.859Z,102038.44
2018-10-03T16:50:30.222Z,102041.35
2018-10-03T16:52:59.576Z,102042.91
2018-10-03T16:55:29.039Z,102050.92
2018-10-03T16:57:58.340Z,102052.48
2018-10-03T17:00:27.673Z,102055.51
2018-10-03T17:02:57.332Z,102059.92
2018-10-03T17:05:26.699Z,102069.23
2018-10-03T17:07:56.103Z,102072.84
2018-10-03T17:10:25.463Z,102081.18
2018-10-03T17:12:54.846Z,102076.19
2018-10-03T17:15:24.320Z,102078.56
2018-10-03T17:17:54.438Z,102072.36
2018-10-03T17:20:28.224Z,102070.05
2018-10-03T17:22:57.858Z,102078.89
2018-10-03T17:25:27.267Z,102083.53
2018-10-03T17:27:56.634Z,102086.48
2018-10-03T17:30:26.037Z,102099.75
2018-10-03T17:32:55.481Z,102094.14
2018-10-03T17:35:24.937Z,102090.95
2018-10-03T17:37:55.138Z,102090.86
2018-10-03T17:40:24.499Z,102094.59
2018-10-03T17:42:54.565Z,102107.85
2018-10-03T17:45:24.881Z,102111.85
2018-10-03T17:47:54.397Z,102114.86
2018-10-03T17:50:23.862Z,102108.73
2018-10-03T17:52:53.421Z,102113.50
2018-10-03T17:55:23.205Z,102121.80
2018-10-03T17:57:52.639Z,102135.28
2018-10-03T18:00:22.150Z,102123.69
2018-10-03T18:02:51.514Z,102125.38
2018-10-03T18:05:23.507Z,102130.17
2018-10-03T18:07:52.882Z,102133.67
2018-10-03T18:10:22.226Z,102136.92
2018-10-03T18:12:51.687Z,102148.06
2018-10-03T18:15:22.037Z,102147.31
2018-10-03T18:17:51.357Z,102151.61
2018-10-03T18:20:21.943Z,102152.91
2018-10-03T18:22:52.419Z,102141.31
2018-10-03T18:25:22.425Z,102140.03
2018-10-03T18:27:51.968Z,102137.61
2018-10-03T18:30:23.278Z,102137.09
2018-10-03T18:32:53.406Z,102143.84
2018-10-03T18:35:23.021Z,102149.67
2018-10-03T18:37:52.537Z,102157.08
2018-10-03T18:40:22.096Z,102155.87
2018-10-03T18:42:51.547Z,102148.33
2018-10-03T18:45:21.252Z,102156.22
2018-10-03T18:47:50.624Z,102155.94
2018-10-03T18:50:20.099Z,102153.63
2018-10-03T18:52:49.498Z,102154.81
2018-10-03T18:55:18.881Z,102158.19
2018-10-03T18:57:48.393Z,102154.45
2018-10-03T19:00:17.846Z,102154.05
2018-10-03T19:02:47.345Z,102148.91
2018-10-03T19:05:16.728Z,102150.88
2018-10-03T19:07:46.171Z,102156.88
2018-10-03T19:10:15.584Z,102160.61
2018-10-03T19:12:44.989Z,102157.78
2018-10-03T19:15:14.504Z,102167.31
2018-10-03T19:17:43.982Z,102164.75
2018-10-03T19:20:13.428Z,102171.34
2018-10-03T19:22:42.718Z,102168.75
2018-10-03T19:25:12.156Z,102180.35
2018-10-03T19:27:41.523Z,102172.54
2018-10-03T19:30:11.276Z,102171.50
2018-10-03T19:32:40.652Z,102176.14
2018-10-03T19:35:10.024Z,102174.53
2018-10-03T19:37:40.124Z,102182.48
2018-10-03T19:40:09.635Z,102182.30
2018-10-03T19:42:39.002Z,102187.37
2018-10-03T19:45:08.472Z,102185.45
2018-10-03T19:47:37.882Z,102184.65
2018-10-03T19:50:07.273Z,102182.18
2018-10-03T19:52:36.949Z,102178.52
2018-10-03T19:55:06.499Z,102180.95
2018-10-03T19:57:35.991Z,102176.84
2018-10-03T20:00:05.680Z,102180.23
2018-10-03T20:02:35.069Z,102179.77
2018-10-03T20:05:04.551Z,102178.41
2018-10-03T20:07:34.080Z,102178.58
2018-10-03T20:10:03.613Z,102172.97
2018-10-03T20:12:33.063Z,102167.28
2018-10-03T20:15:02.767Z,102173.02
2018-10-03T20:17:32.198Z,102180.95
2018-10-03T20:20:01.619Z,102183.97
2018-10-03T20:22:31.018Z,102188.45
2018-10-03T20:25:00.451Z,102192.14
2018-10-03T20:27:29.894Z,102199.20
2018-10-03T20:29:59.218Z,102204.09
2018-10-03T20:32:28.578Z,102199.20
2018-10-03T20:34:58.073Z,102201.33
2018-10-03T20:37:27.616Z,102215.27
2018-10-03T20:39:57.016Z,102204.97
2018-10-03T20:42:26.382Z,102208.91
2018-10-03T20:44:55.867Z,102210.48
2018-10-03T20:47:26.799Z,102202.95
2018-10-03T20:49:56.167Z,102204.97
2018-10-03T20:52:25.503Z,102206.07
2018-10-03T20:54:54.843Z,102210.45
2018-10-03T20:57:24.287Z,102214.59
2018-10-03T20:59:53.748Z,102210.21
2018-10-03T21:02:23.130Z,102220.17
2018-10-03T21:04:52.543Z,102222.84
2018-10-03T21:07:22.494Z,102218.05
2018-10-03T21:09:51.823Z,102222.90
2018-10-03T21:12:21.151Z,102219.27
2018-10-03T21:14:50.644Z,102219.22
2018-10-03T21:17:20.265Z,102222.97
2018-10-03T21:19:49.839Z,102221.93
2018-10-03T21:22:19.578Z,102221.91
2018-10-03T21:24:49.210Z,102221.02
2018-10-03T21:27:19.112Z,102229.53
2018-10-03T21:29:48.933Z,102222.08
2018-10-03T21:32:18.484Z,102225.45
2018-10-03T21:34:47.887Z,102229.72
2018-10-03T21:37:17.472Z,102223.96
2018-10-03T21:39:47.688Z,102222.84
2018-10-03T21:42:17.125Z,102224.98
2018-10-03T21:44:46.810Z,102224.45
2018-10-03T21:47:16.312Z,102216.44
2018-10-03T21:49:46.072Z,102222.14
2018-10-03T21:52:15.534Z,102229.96
2018-10-03T21:54:45.004Z,102221.65
2018-10-03T21:57:14.341Z,102224.52
2018-10-03T21:59:43.846Z,102218.37
2018-10-03T22:02:14.034Z,102216.09
2018-10-03T22:04:43.381Z,102218.11
2018-10-03T22:07:12.887Z,102205.80
2018-10-03T22:09:42.423Z,102215.53
2018-10-03T22:12:11.875Z,102214.58
2018-10-03T22:14:41.484Z,102214.42
2018-10-03T22:17:17.675Z,102219.92
2018-10-03T22:19:47.739Z,102219.57
2018-10-03T22:22:17.233Z,102215.08
2018-10-03T22:24:47.596Z,102213.16
2018-10-03T22:27:17.312Z,102212.11
2018-10-03T22:29:47.746Z,102208.33
2018-10-03T22:32:17.297Z,102204.20
2018-10-03T22:34:46.740Z,102203.91
2018-10-03T22:37:16.392Z,102206.30
2018-10-03T22:39:46.711Z,102206.59
2018-10-03T22:42:18.241Z,102206.73
2018-10-03T22:44:47.536Z,102212.22
2018-10-03T22:47:16.865Z,102209.81
2018-10-03T22:49:46.238Z,102210.73
2018-10-03T22:52:16.078Z,102209.97
2018-10-03T22:54:46.605Z,102207.96
2018-10-03T22:57:15.944Z,102210.19
2018-10-03T22:59:45.603Z,102204.16
2018-10-03T23:02:15.495Z,102210.00
2018-10-03T23:04:44.862Z,102208.52
2018-10-03T23:07:15.154Z,102211.78
2018-10-03T23:09:44.739Z,102219.50
2018-10-03T23:12:16.378Z,102223.57
2018-10-03T23:14:47.269Z,102215.56
2018-10-03T23:17:16.647Z,102213.92
2018-10-03T23:19:45.994Z,102209.13
2018-10-03T23:22:15.652Z,102216.50
2018-10-03T23:24:45.028Z,102214.35
2018-10-03T23:27:14.343Z,102214.78
2018-10-03T23:29:43.739Z,102216.39
2018-10-03T23:32:13.137Z,102228.83
2018-10-03T23:34:42.484Z,102228.16
2018-10-03T23:37:11.850Z,102221.38
2018-10-03T23:39:41.234Z,102220.02
2018-10-03T23:42:10.603Z,102228.33
2018-10-03T23:44:40.052Z,102232.31
2018-10-03T23:47:09.376Z,102238.61
2018-10-03T23:49:38.746Z,102238.30
2018-10-03T23:52:08.535Z,102248.70
2018-10-03T23:54:37.898Z,102250.45
2018-10-03T23:57:07.200Z,102248.06
2018-10-03T23:59:36.562Z,102245.34
